Startpagina
METAR-TAF:

METAR-TAF

Vliegvelden :

Georgetown, Ascension

breedte: 07-58S, lengte: 014-24W, hoogte: 86 m

Actueel weer

Dit bericht is 1 uur en het 30 minuten geleden gemaakt, om 11:50 UTC
Wind 16 kt uit het zuidoosten
Temperatuur 25°C
Vochtigheid 65%
Druk 1018 hPa
Zicht 10 km of meer
Verspreide wolken op 2500 ft
Gebroken wolken op 3300 ft

METAR: FHAW 191150Z 14016KT 9999 SCT025 BKN033 25/18 Q1018 BLU

Tijdstip: 13:20 (13:20 UTC)


TAF: ontbreekt

Waarnemingen en weersverwachtingen van meer dan 4000 vliegvelden (METAR en TAF).

De beschikbare stations zijn de gele en rode punten op de kaart.

Ga met uw muis naar het station om de naam te zien.

Klik dan om waarnemingen en weersverwachtingen te zien.

kaart wijzigen: klik op de groene knoppen met een zwart kruis om in te zoomen, op de groene knop met een streepje om uit te zoomen of op de groene pijlen voor aangrenzende kaarten.


METAR-TAF: